Time;durP1;ratioP1;P1;durP2;ratioP2;P2;SDS_P1;SDS_P2;PMS_P1;PMS_P2;Temp;Humidity;BMP_temperature;BMP_pressure;BME280_temperature;BME280_humidity;BME280_pressure;Samples;Min_cycle;Max_cycle;Signal;HPM_P1;HPM_P2
2023/01/17 00:02:16;;;;;;;95.30;44.47;;;7.80;98.20;;;;;;5063259;28;20582;-67
2023/01/17 00:10:18;;;;;;;115.83;44.90;;;7.80;98.50;;;;;;5070378;28;20202;-67
2023/01/17 00:12:48;;;;;;;102.50;45.17;;;7.80;98.50;;;;;;5066382;28;20205;-67
2023/01/17 00:15:18;;;;;;;101.13;45.17;;;7.80;98.60;;;;;;5061946;28;20305;-68
2023/01/17 00:17:46;;;;;;;96.83;43.83;;;7.80;98.60;;;;;;5066623;28;20219;-67
2023/01/17 00:26:17;;;;;;;85.50;41.40;;;7.80;98.60;;;;;;5067565;28;20199;-67
2023/01/17 01:36:02;;;;;;;67.57;31.47;;;7.30;97.80;;;;;;5071057;28;20604;-67
2023/01/17 01:38:31;;;;;;;60.67;30.17;;;7.20;97.70;;;;;;5065063;28;20569;-67
2023/01/17 01:40:58;;;;;;;56.10;29.33;;;7.20;97.60;;;;;;5064896;28;20210;-67
2023/01/17 01:43:47;;;;;;;56.73;31.07;;;7.10;97.50;;;;;;5067560;28;20218;-67
2023/01/17 01:46:38;;;;;;;62.97;32.60;;;7.00;97.60;;;;;;5061540;28;20642;-67
2023/01/17 01:49:31;;;;;;;61.70;30.67;;;7.00;97.60;;;;;;5062650;28;20208;-67
2023/01/17 01:52:01;;;;;;;56.03;28.77;;;6.90;97.60;;;;;;5070317;28;20209;-67
2023/01/17 01:54:38;;;;;;;58.67;29.70;;;6.80;97.60;;;;;;5071294;28;20238;-67
2023/01/17 01:57:09;;;;;;;60.47;29.70;;;6.80;97.60;;;;;;5097940;28;20248;-67
2023/01/17 01:59:41;;;;;;;57.57;30.77;;;6.80;97.40;;;;;;5064693;28;20190;-67
2023/01/17 02:02:08;;;;;;;60.43;28.77;;;6.70;97.40;;;;;;5067134;28;20602;-67
2023/01/17 02:04:36;;;;;;;59.00;28.23;;;6.60;97.40;;;;;;5068585;28;20245;-67
2023/01/17 02:07:09;;;;;;;52.03;28.50;;;6.60;97.70;;;;;;5070244;28;20244;-68
2023/01/17 02:09:36;;;;;;;61.70;30.10;;;6.60;97.50;;;;;;5060780;28;20198;-67
2023/01/17 02:12:05;;;;;;;53.57;28.40;;;6.60;97.60;;;;;;5065052;28;20228;-67
2023/01/17 02:14:32;;;;;;;60.80;29.77;;;6.50;97.60;;;;;;5066050;28;20222;-67
2023/01/17 02:17:24;;;;;;;58.93;29.03;;;6.50;97.60;;;;;;5065045;28;20213;-67
2023/01/17 02:20:09;;;;;;;59.00;29.00;;;6.40;97.60;;;;;;5064558;28;20197;-67
2023/01/17 02:22:58;;;;;;;55.50;28.00;;;6.40;97.50;;;;;;5068534;28;20198;-67
2023/01/17 02:25:58;;;;;;;60.07;27.40;;;6.40;97.50;;;;;;5069201;28;20516;-67
2023/01/17 02:28:44;;;;;;;54.90;29.07;;;6.30;97.50;;;;;;5062012;28;20195;-67
2023/01/17 02:31:19;;;;;;;58.53;28.47;;;6.30;97.60;;;;;;5063382;28;20792;-68
2023/01/17 02:34:04;;;;;;;49.80;26.57;;;6.30;97.60;;;;;;5067125;28;20277;-67
2023/01/17 02:36:36;;;;;;;63.37;29.53;;;6.20;97.60;;;;;;5072682;28;20521;-67
2023/01/17 02:39:23;;;;;;;57.37;28.87;;;6.20;97.60;;;;;;5063497;28;20206;-67
2023/01/17 02:41:55;;;;;;;55.33;27.97;;;6.20;97.60;;;;;;5068527;28;20202;-67
2023/01/17 02:44:22;;;;;;;55.37;27.67;;;6.20;97.30;;;;;;5067389;28;20232;-67
2023/01/17 02:46:53;;;;;;;57.37;27.97;;;6.20;97.20;;;;;;5072879;28;20198;-67
2023/01/17 02:49:25;;;;;;;56.47;27.93;;;6.10;97.20;;;;;;5062371;28;20224;-67
2023/01/17 02:52:33;;;;;;;57.40;28.90;;;6.10;97.30;;;;;;5066819;28;20198;-67
2023/01/17 02:55:22;;;;;;;62.77;28.97;;;6.20;97.50;;;;;;5049782;28;20225;-67
2023/01/17 02:58:23;;;;;;;51.60;26.77;;;6.20;97.50;;;;;;5066256;28;20223;-67
2023/01/17 03:01:02;;;;;;;53.57;26.83;;;6.20;97.30;;;;;;5063319;28;20320;-67
2023/01/17 03:03:29;;;;;;;53.07;26.47;;;6.10;97.10;;;;;;5058991;28;20244;-67
2023/01/17 03:06:10;;;;;;;55.53;26.77;;;6.10;97.20;;;;;;5062171;28;20198;-67
2023/01/17 03:08:43;;;;;;;63.33;27.80;;;6.10;97.30;;;;;;5068857;28;20198;-67
2023/01/17 03:11:12;;;;;;;52.80;25.93;;;6.00;97.30;;;;;;5061773;28;20197;-67
2023/01/17 03:13:40;;;;;;;43.60;23.33;;;6.00;97.30;;;;;;5064735;28;20226;-68
2023/01/17 03:16:13;;;;;;;49.97;25.00;;;6.00;97.30;;;;;;5065072;28;20210;-67
2023/01/17 03:18:40;;;;;;;53.67;25.73;;;5.90;97.30;;;;;;5070654;28;20297;-67
2023/01/17 03:21:07;;;;;;;52.63;25.67;;;5.90;97.40;;;;;;5062338;28;20225;-67
2023/01/17 03:23:34;;;;;;;53.10;26.00;;;5.90;97.40;;;;;;5069210;28;20197;-67
2023/01/17 03:26:01;;;;;;;51.93;25.90;;;5.80;97.30;;;;;;5061511;28;20541;-67
2023/01/17 03:28:28;;;;;;;40.73;22.77;;;5.80;97.30;;;;;;5063281;28;20216;-67
2023/01/17 03:30:56;;;;;;;52.17;25.67;;;5.70;97.30;;;;;;5065991;28;20201;-67
2023/01/17 03:33:24;;;;;;;44.97;22.73;;;5.70;97.40;;;;;;5060576;28;20698;-67
2023/01/17 03:35:53;;;;;;;56.43;23.60;;;5.70;97.40;;;;;;5059860;28;20201;-67
2023/01/17 03:38:20;;;;;;;51.97;23.43;;;5.70;97.50;;;;;;5067599;28;20708;-67
2023/01/17 03:40:47;;;;;;;47.90;24.67;;;5.70;97.50;;;;;;5069168;28;20620;-67
2023/01/17 03:43:14;;;;;;;46.40;22.97;;;5.70;97.40;;;;;;5066495;28;20257;-67
2023/01/17 03:45:41;;;;;;;42.83;22.70;;;5.70;97.40;;;;;;5066203;28;20204;-67
2023/01/17 03:48:09;;;;;;;48.17;25.47;;;5.60;97.30;;;;;;5063994;28;20208;-67
2023/01/17 03:50:36;;;;;;;52.43;27.83;;;5.60;97.30;;;;;;5063148;28;20206;-67
2023/01/17 03:53:03;;;;;;;54.83;23.93;;;5.50;97.30;;;;;;5065220;28;20248;-67
2023/01/17 03:55:30;;;;;;;45.73;24.53;;;5.50;97.40;;;;;;5060894;28;20195;-67
2023/01/17 03:57:57;;;;;;;47.47;25.20;;;5.50;97.50;;;;;;5060718;28;20213;-67
2023/01/17 04:00:24;;;;;;;50.20;26.20;;;5.50;97.50;;;;;;5061201;28;20193;-67
2023/01/17 04:02:51;;;;;;;46.57;20.73;;;5.50;97.50;;;;;;5068160;28;20197;-67
2023/01/17 04:05:18;;;;;;;45.37;22.13;;;5.50;97.50;;;;;;5049214;28;20223;-67
2023/01/17 04:07:45;;;;;;;52.87;26.03;;;5.50;97.40;;;;;;5064834;28;20275;-67
2023/01/17 04:10:12;;;;;;;37.27;20.17;;;5.40;97.30;;;;;;5063021;28;20581;-67
2023/01/17 04:12:40;;;;;;;38.57;20.13;;;5.40;97.40;;;;;;5062378;28;20640;-67
2023/01/17 04:15:07;;;;;;;41.23;23.37;;;5.40;97.40;;;;;;5062495;28;20224;-67
2023/01/17 04:17:34;;;;;;;46.30;23.63;;;5.40;97.30;;;;;;5061157;28;20205;-67
2023/01/17 04:20:01;;;;;;;34.53;17.70;;;5.30;97.30;;;;;;5060628;28;20208;-67
2023/01/17 04:22:30;;;;;;;40.83;21.90;;;5.30;97.20;;;;;;5064191;28;20201;-67
2023/01/17 04:24:57;;;;;;;31.87;16.93;;;5.30;97.10;;;;;;5063382;28;20209;-67
2023/01/17 04:27:24;;;;;;;45.30;19.80;;;5.20;97.10;;;;;;5062629;28;20264;-67
2023/01/17 04:29:51;;;;;;;38.67;20.07;;;5.20;97.10;;;;;;5065244;28;20198;-67
2023/01/17 04:32:18;;;;;;;38.13;19.50;;;5.20;97.20;;;;;;5065758;28;20209;-67
2023/01/17 04:34:45;;;;;;;33.03;17.57;;;5.20;97.20;;;;;;5064743;28;20210;-67
2023/01/17 04:37:12;;;;;;;38.60;18.20;;;5.10;97.10;;;;;;5062119;28;20197;-67
2023/01/17 04:39:39;;;;;;;41.33;20.13;;;5.10;97.10;;;;;;5062468;28;20201;-67
2023/01/17 04:42:06;;;;;;;41.77;22.40;;;5.00;96.90;;;;;;5060806;28;20197;-67
2023/01/17 04:44:33;;;;;;;49.77;24.67;;;5.00;96.80;;;;;;5065754;28;20205;-67
2023/01/17 04:47:01;;;;;;;47.57;22.93;;;5.00;96.80;;;;;;5060836;28;20643;-67
2023/01/17 04:49:28;;;;;;;42.57;20.53;;;4.90;96.80;;;;;;5057987;28;20206;-67
2023/01/17 04:51:55;;;;;;;43.80;21.73;;;4.90;96.90;;;;;;5057261;28;20213;-67
2023/01/17 04:54:22;;;;;;;37.73;19.23;;;4.90;96.90;;;;;;5067467;28;20546;-67
2023/01/17 04:56:49;;;;;;;40.03;18.23;;;4.90;97.00;;;;;;5059661;28;20195;-68
2023/01/17 04:59:16;;;;;;;30.87;18.00;;;4.90;97.00;;;;;;5067908;28;20194;-67
2023/01/17 05:01:43;;;;;;;38.80;18.70;;;4.80;96.90;;;;;;5066475;28;20241;-67
2023/01/17 05:04:10;;;;;;;45.37;20.37;;;4.80;96.80;;;;;;5066703;28;20250;-67
2023/01/17 05:06:37;;;;;;;48.43;22.10;;;4.80;96.60;;;;;;5079082;28;20209;-67
2023/01/17 05:09:05;;;;;;;51.70;23.53;;;4.70;96.50;;;;;;5066337;28;20205;-67
2023/01/17 05:11:32;;;;;;;38.57;19.73;;;4.70;96.50;;;;;;5068227;28;20229;-67
2023/01/17 05:13:59;;;;;;;49.80;23.67;;;4.70;96.60;;;;;;5065930;28;20218;-67
2023/01/17 05:16:26;;;;;;;53.17;24.87;;;4.60;96.80;;;;;;5064101;28;20213;-67
2023/01/17 05:18:53;;;;;;;57.77;26.40;;;4.60;96.90;;;;;;5069503;28;20576;-67
2023/01/17 05:21:21;;;;;;;45.10;24.03;;;4.70;97.10;;;;;;5064858;28;20209;-67
2023/01/17 05:23:48;;;;;;;49.17;24.27;;;4.70;97.10;;;;;;5063682;28;20624;-66
2023/01/17 05:26:15;;;;;;;44.43;23.53;;;4.70;97.10;;;;;;5074896;28;20213;-67
2023/01/17 05:28:43;;;;;;;43.03;21.27;;;4.70;97.10;;;;;;5067670;28;20209;-67
2023/01/17 05:31:10;;;;;;;38.70;20.47;;;4.70;97.10;;;;;;5067100;28;20199;-68
2023/01/17 05:33:37;;;;;;;41.27;21.77;;;4.70;97.10;;;;;;5060218;28;20591;-65
2023/01/17 05:36:05;;;;;;;42.60;21.93;;;4.70;97.00;;;;;;5061905;28;20202;-65
2023/01/17 05:38:32;;;;;;;44.20;22.10;;;4.70;97.10;;;;;;5065822;28;20205;-66
2023/01/17 05:41:00;;;;;;;43.73;23.07;;;4.70;97.10;;;;;;5065906;28;20196;-66
2023/01/17 05:43:27;;;;;;;38.40;18.67;;;4.70;97.10;;;;;;5068915;28;20306;-65
2023/01/17 05:45:54;;;;;;;47.57;21.73;;;4.70;96.90;;;;;;5072386;28;20283;-66
2023/01/17 05:48:21;;;;;;;42.27;21.50;;;4.70;96.50;;;;;;5063644;28;20209;-66
2023/01/17 05:50:49;;;;;;;42.77;21.23;;;4.70;96.60;;;;;;5065590;28;20213;-65
2023/01/17 05:53:16;;;;;;;48.87;24.90;;;4.70;96.80;;;;;;5073729;28;20204;-65
2023/01/17 05:55:43;;;;;;;51.47;24.40;;;4.70;96.80;;;;;;5063108;28;20591;-66
2023/01/17 05:58:16;;;;;;;39.37;22.37;;;4.70;96.90;;;;;;5064484;28;20247;-66
2023/01/17 06:00:44;;;;;;;52.70;25.37;;;4.70;96.90;;;;;;5062508;28;20586;-65
2023/01/17 06:03:11;;;;;;;43.33;23.67;;;4.80;97.10;;;;;;5060633;28;20213;-65
2023/01/17 06:05:39;;;;;;;43.57;23.83;;;4.80;97.20;;;;;;5069646;28;20204;-66
2023/01/17 06:08:06;;;;;;;50.40;26.10;;;4.90;97.30;;;;;;5065539;28;20209;-65
2023/01/17 06:10:33;;;;;;;59.40;25.93;;;4.90;97.30;;;;;;5064609;28;20567;-65
2023/01/17 06:13:08;;;;;;;55.67;24.73;;;5.00;97.40;;;;;;5066188;28;20212;-65
2023/01/17 06:15:37;;;;;;;45.17;24.30;;;5.00;97.40;;;;;;5062469;28;20267;-65
2023/01/17 06:18:13;;;;;;;54.10;27.73;;;5.10;97.30;;;;;;5063756;28;20205;-66
2023/01/17 06:20:40;;;;;;;54.67;28.43;;;5.10;97.20;;;;;;5067903;28;20189;-65
2023/01/17 06:23:10;;;;;;;61.77;28.57;;;5.10;97.30;;;;;;5068503;28;20200;-65
2023/01/17 06:25:43;;;;;;;54.80;26.70;;;5.20;97.40;;;;;;5063191;28;20490;-65
2023/01/17 06:28:12;;;;;;;54.63;27.77;;;5.20;97.50;;;;;;5065208;28;20202;-65
2023/01/17 06:30:39;;;;;;;55.57;26.43;;;5.30;97.50;;;;;;5062446;28;20576;-65
2023/01/17 06:33:06;;;;;;;54.13;28.23;;;5.30;97.50;;;;;;5062421;28;20210;-65
2023/01/17 06:35:33;;;;;;;66.67;29.50;;;5.30;97.60;;;;;;5063665;28;20225;-66
2023/01/17 06:38:00;;;;;;;54.77;26.37;;;5.40;97.60;;;;;;5071331;28;20209;-65
2023/01/17 06:40:28;;;;;;;53.77;27.67;;;5.40;97.60;;;;;;5061269;28;20212;-65
2023/01/17 06:43:00;;;;;;;48.50;25.53;;;5.50;97.60;;;;;;5067607;28;20198;-65
2023/01/17 06:45:28;;;;;;;57.17;28.27;;;5.50;97.60;;;;;;5067032;28;20226;-65
2023/01/17 06:47:57;;;;;;;52.57;27.67;;;5.50;97.60;;;;;;5059751;28;20620;-65
2023/01/17 06:50:25;;;;;;;53.13;26.03;;;5.50;97.60;;;;;;5068657;28;20277;-65
2023/01/17 06:53:00;;;;;;;57.13;27.73;;;5.50;97.60;;;;;;5069269;28;20232;-65
2023/01/17 06:55:29;;;;;;;59.10;29.27;;;5.50;97.70;;;;;;5064533;28;20217;-66
2023/01/17 06:57:58;;;;;;;66.43;28.87;;;5.60;97.70;;;;;;5065987;28;20205;-66
2023/01/17 07:00:26;;;;;;;59.03;30.83;;;5.60;97.70;;;;;;5069629;28;20198;-65
2023/01/17 07:02:54;;;;;;;62.60;28.20;;;5.60;97.80;;;;;;5064396;28;20212;-65
2023/01/17 07:05:21;;;;;;;63.00;29.43;;;5.60;97.90;;;;;;5060912;28;20680;-65
2023/01/17 07:07:48;;;;;;;64.97;30.10;;;5.60;97.90;;;;;;5064507;28;20630;-65
2023/01/17 07:10:15;;;;;;;67.60;31.13;;;5.60;98.00;;;;;;5060974;28;20204;-65
2023/01/17 07:12:42;;;;;;;68.10;29.87;;;5.60;98.00;;;;;;5069164;28;20205;-65
2023/01/17 07:15:10;;;;;;;67.00;30.40;;;5.60;98.10;;;;;;5062439;28;20294;-65
2023/01/17 07:17:37;;;;;;;63.57;29.57;;;5.60;98.10;;;;;;5065590;28;20208;-66
2023/01/17 07:20:05;;;;;;;56.43;28.47;;;5.70;98.20;;;;;;5069760;28;20211;-66
2023/01/17 07:22:33;;;;;;;63.77;30.37;;;5.70;98.20;;;;;;5066034;28;20229;-66
2023/01/17 07:25:00;;;;;;;58.90;29.10;;;5.70;98.20;;;;;;5060837;28;20211;-66
2023/01/17 07:27:29;;;;;;;74.10;31.47;;;5.70;98.20;;;;;;5062583;28;20225;-66
2023/01/17 07:29:56;;;;;;;63.80;30.53;;;5.70;98.30;;;;;;5065101;28;20288;-66
2023/01/17 07:32:25;;;;;;;69.17;31.07;;;5.80;98.30;;;;;;5062954;28;20566;-66
2023/01/17 07:34:53;;;;;;;63.23;28.27;;;5.80;98.30;;;;;;5063373;28;20275;-65
2023/01/17 07:37:20;;;;;;;62.47;28.97;;;5.80;98.40;;;;;;5069913;28;20206;-66
2023/01/17 07:39:48;;;;;;;64.07;29.30;;;5.80;98.40;;;;;;5063623;28;20201;-65
2023/01/17 07:42:15;;;;;;;57.77;29.47;;;5.80;98.30;;;;;;5064928;28;20211;-66
2023/01/17 07:44:43;;;;;;;62.73;30.70;;;5.90;98.30;;;;;;5069426;28;20217;-66
2023/01/17 07:47:11;;;;;;;62.10;29.87;;;5.90;98.20;;;;;;5069158;28;20216;-65
2023/01/17 07:49:38;;;;;;;62.07;28.77;;;5.90;98.10;;;;;;5066384;28;20647;-66
2023/01/17 07:52:08;;;;;;;61.93;30.13;;;5.90;98.10;;;;;;5066901;28;20654;-66
2023/01/17 07:54:35;;;;;;;63.40;30.93;;;5.90;98.20;;;;;;5065136;28;20598;-66
2023/01/17 07:57:02;;;;;;;58.27;28.87;;;5.90;98.20;;;;;;5057885;28;20210;-66
2023/01/17 07:59:32;;;;;;;65.67;30.67;;;5.90;98.20;;;;;;5064054;28;20260;-66
2023/01/17 08:01:59;;;;;;;57.77;29.30;;;5.90;98.20;;;;;;5061409;28;20241;-66
2023/01/17 08:04:27;;;;;;;59.30;30.83;;;5.90;98.20;;;;;;5064730;28;20643;-66
2023/01/17 08:06:54;;;;;;;61.80;31.27;;;5.90;98.30;;;;;;5063272;28;20198;-66
2023/01/17 08:09:21;;;;;;;64.63;31.00;;;5.90;98.40;;;;;;5068110;28;20573;-65
2023/01/17 08:11:48;;;;;;;72.20;31.10;;;5.90;98.50;;;;;;5065036;28;20228;-66
2023/01/17 08:14:15;;;;;;;72.90;32.97;;;5.90;98.50;;;;;;5066091;28;20213;-65
2023/01/17 08:16:42;;;;;;;70.43;30.93;;;5.90;98.60;;;;;;5059619;28;20315;-65
2023/01/17 08:19:10;;;;;;;60.73;28.43;;;6.00;98.60;;;;;;5065601;28;20284;-65
2023/01/17 08:21:37;;;;;;;73.00;30.53;;;6.00;98.60;;;;;;5065531;28;20632;-66
2023/01/17 08:24:04;;;;;;;73.53;30.80;;;6.00;98.40;;;;;;5057931;28;20207;-66
2023/01/17 08:26:31;;;;;;;71.27;30.73;;;6.00;98.50;;;;;;5064277;28;20569;-65
2023/01/17 08:29:00;;;;;;;70.20;30.37;;;6.10;98.60;;;;;;5061995;28;20610;-66
2023/01/17 08:31:31;;;;;;;71.77;31.80;;;6.10;98.70;;;;;;5068064;28;20233;-65
2023/01/17 08:33:59;;;;;;;68.80;31.90;;;6.10;98.60;;;;;;5065773;28;20212;-66
2023/01/17 08:36:27;;;;;;;70.77;31.40;;;6.10;98.60;;;;;;5067213;28;20202;-65
2023/01/17 08:38:54;;;;;;;71.00;29.77;;;6.20;98.70;;;;;;5065613;28;20198;-66
2023/01/17 08:41:22;;;;;;;83.80;31.63;;;6.20;98.60;;;;;;5073369;28;20522;-66
2023/01/17 08:43:50;;;;;;;68.20;31.07;;;6.20;98.70;;;;;;5068107;28;20200;-66
2023/01/17 08:46:18;;;;;;;76.90;32.30;;;6.30;98.80;;;;;;5067834;28;20225;-66
2023/01/17 08:48:45;;;;;;;73.47;31.30;;;6.30;98.90;;;;;;5065138;28;20281;-66
2023/01/17 08:51:13;;;;;;;70.00;30.17;;;6.30;99.00;;;;;;5064303;28;20219;-66
2023/01/17 08:53:40;;;;;;;84.70;32.90;;;6.40;99.00;;;;;;5066862;28;20206;-66
2023/01/17 08:56:08;;;;;;;69.00;30.77;;;6.40;99.10;;;;;;5068415;28;20217;-66
2023/01/17 08:58:35;;;;;;;81.77;34.07;;;6.50;99.20;;;;;;5062694;28;20228;-66
2023/01/17 09:01:04;;;;;;;80.47;32.53;;;6.50;99.20;;;;;;5067409;28;20238;-66
2023/01/17 09:03:32;;;;;;;77.97;33.03;;;6.50;99.20;;;;;;5074914;28;20264;-66
2023/01/17 09:06:05;;;;;;;76.90;33.33;;;6.60;99.30;;;;;;5059105;28;20570;-66
2023/01/17 09:08:32;;;;;;;81.50;32.47;;;6.60;99.40;;;;;;5065993;28;20232;-66
2023/01/17 09:11:08;;;;;;;91.50;34.57;;;6.60;99.40;;;;;;5067581;28;20202;-66
2023/01/17 09:13:36;;;;;;;82.90;32.43;;;6.60;99.40;;;;;;5069856;28;20221;-66
2023/01/17 09:16:04;;;;;;;91.43;31.40;;;6.70;99.50;;;;;;5069803;28;20221;-66
2023/01/17 09:18:32;;;;;;;79.60;31.07;;;6.70;99.50;;;;;;5069459;28;20195;-66
2023/01/17 09:21:12;;;;;;;83.77;32.10;;;6.70;99.60;;;;;;5062970;28;20259;-66
2023/01/17 09:23:40;;;;;;;83.60;30.17;;;6.80;99.90;;;;;;5070911;28;20308;-66
2023/01/17 09:26:13;;;;;;;80.30;30.57;;;6.70;99.50;;;;;;5071530;28;20220;-65
2023/01/17 09:28:41;;;;;;;84.50;30.63;;;6.80;99.60;;;;;;5062943;28;20203;-66
2023/01/17 09:31:08;;;;;;;80.73;32.13;;;6.80;99.60;;;;;;5068308;28;20683;-66
2023/01/17 09:33:36;;;;;;;72.03;29.90;;;6.80;99.60;;;;;;5066832;28;20237;-65
2023/01/17 09:36:04;;;;;;;78.17;30.43;;;6.80;99.60;;;;;;5065991;28;20234;-65
2023/01/17 09:38:32;;;;;;;75.97;29.00;;;6.80;99.70;;;;;;5067008;28;20606;-65
2023/01/17 09:41:01;;;;;;;64.50;28.23;;;6.90;99.70;;;;;;5065428;28;20581;-66
2023/01/17 09:43:46;;;;;;;74.13;28.93;;;6.90;99.80;;;;;;5060322;28;20530;-65
2023/01/17 09:46:22;;;;;;;76.10;29.70;;;7.00;99.80;;;;;;5061532;28;20190;-65
2023/01/17 09:48:58;;;;;;;77.03;29.37;;;7.00;99.60;;;;;;5070115;28;20209;-66
2023/01/17 09:51:25;;;;;;;73.27;28.33;;;7.00;99.50;;;;;;5059517;28;20210;-65
2023/01/17 09:53:53;;;;;;;69.87;29.10;;;7.00;99.40;;;;;;5068542;28;20198;-65
2023/01/17 09:56:28;;;;;;;64.73;29.50;;;7.00;99.40;;;;;;5062910;28;20548;-66
2023/01/17 09:59:10;;;;;;;70.30;27.87;;;7.00;99.40;;;;;;5068640;28;20197;-66
2023/01/17 10:01:47;;;;;;;74.60;28.60;;;7.00;99.40;;;;;;5064990;28;20237;-65
2023/01/17 10:04:14;;;;;;;69.57;27.57;;;7.00;99.40;;;;;;5067216;28;20187;-63
2023/01/17 10:06:50;;;;;;;65.60;28.50;;;7.00;99.40;;;;;;5066307;28;20598;-65
2023/01/17 10:09:36;;;;;;;66.43;28.07;;;7.00;99.50;;;;;;5061862;28;20215;-65
2023/01/17 10:12:28;;;;;;;69.13;26.87;;;7.00;99.50;;;;;;5067132;28;20204;-64
2023/01/17 10:15:27;;;;;;;70.73;27.50;;;7.00;99.60;;;;;;5068054;28;20225;-65
2023/01/17 10:18:03;;;;;;;72.73;26.57;;;7.10;99.60;;;;;;5059723;28;20276;-66
2023/01/17 10:21:15;;;;;;;66.57;27.30;;;7.10;99.50;;;;;;5063067;28;20202;-65
2023/01/17 10:24:12;;;;;;;63.03;27.57;;;7.10;99.50;;;;;;5047041;28;20271;-64
2023/01/17 10:26:40;;;;;;;66.30;27.27;;;7.10;99.40;;;;;;5035936;28;20673;-65
2023/01/17 10:29:15;;;;;;;59.13;25.77;;;7.10;99.40;;;;;;5061136;28;20214;-63
2023/01/17 10:31:57;;;;;;;64.20;26.53;;;7.10;99.50;;;;;;5066533;28;20206;-65
2023/01/17 10:34:34;;;;;;;61.93;26.80;;;7.20;99.50;;;;;;5066590;28;20194;-64
2023/01/17 10:37:14;;;;;;;61.17;25.33;;;7.20;99.50;;;;;;5065659;28;20205;-64
2023/01/17 10:39:44;;;;;;;63.30;25.47;;;7.20;99.40;;;;;;5060750;28;20202;-62
2023/01/17 10:42:24;;;;;;;54.93;25.70;;;7.20;99.40;;;;;;5066267;28;20221;-66
2023/01/17 10:45:12;;;;;;;60.57;26.00;;;7.20;99.40;;;;;;5066771;28;20194;-63
2023/01/17 10:47:44;;;;;;;54.07;27.77;;;7.20;99.30;;;;;;5065541;28;20195;-64
2023/01/17 10:50:12;;;;;;;48.67;23.40;;;7.20;99.40;;;;;;5058539;28;20210;-65
2023/01/17 10:53:23;;;;;;;54.63;24.70;;;7.20;99.60;;;;;;5067106;28;20201;-64
2023/01/17 10:55:52;;;;;;;58.27;27.20;;;7.20;99.60;;;;;;5056738;28;20652;-64
2023/01/17 10:58:19;;;;;;;64.93;27.77;;;7.30;99.70;;;;;;5064099;28;20670;-66
2023/01/17 11:00:55;;;;;;;58.80;26.43;;;7.30;99.70;;;;;;5068162;28;20275;-66
2023/01/17 11:03:23;;;;;;;53.70;25.80;;;7.30;99.70;;;;;;5065750;28;20271;-65
2023/01/17 11:06:21;;;;;;;56.70;24.73;;;7.30;99.70;;;;;;5064859;28;20536;-65
2023/01/17 11:09:00;;;;;;;54.00;25.87;;;7.40;99.70;;;;;;5062557;28;20209;-65
2023/01/17 11:11:34;;;;;;;58.50;25.93;;;7.40;99.70;;;;;;5061116;28;20213;-65
2023/01/17 11:14:14;;;;;;;63.90;25.00;;;7.40;99.70;;;;;;5062284;28;20248;-65
2023/01/17 11:16:42;;;;;;;58.40;26.77;;;7.40;99.80;;;;;;5043805;28;20230;-66
2023/01/17 11:19:18;;;;;;;51.13;24.57;;;7.40;99.80;;;;;;5065101;28;20198;-65
2023/01/17 11:21:56;;;;;;;44.67;23.07;;;7.40;99.90;;;;;;5072537;28;20204;-67
2023/01/17 11:24:35;;;;;;;58.97;26.60;;;7.40;99.90;;;;;;5065327;28;20198;-64
2023/01/17 11:27:05;;;;;;;49.33;24.40;;;7.40;99.90;;;;;;5067739;28;20206;-64
2023/01/17 11:29:33;;;;;;;49.60;24.30;;;7.40;99.90;;;;;;5063347;28;20187;-65
2023/01/17 11:32:30;;;;;;;42.10;22.03;;;7.50;99.90;;;;;;5064735;28;20206;-66
2023/01/17 11:35:11;;;;;;;40.27;22.00;;;7.50;99.90;;;;;;5064835;28;20282;-64
2023/01/17 11:38:06;;;;;;;41.53;21.83;;;7.50;99.90;;;;;;5064410;28;20259;-64
2023/01/17 11:40:42;;;;;;;39.63;23.03;;;7.50;99.90;;;;;;5058227;28;20636;-65
2023/01/17 11:43:25;;;;;;;39.73;23.40;;;7.60;99.90;;;;;;5067898;28;20288;-66
2023/01/17 11:46:03;;;;;;;38.53;23.80;;;7.60;99.90;;;;;;5065892;28;20201;-65
2023/01/17 11:48:37;;;;;;;39.93;22.13;;;7.60;99.90;;;;;;5061843;28;20202;-66
2023/01/17 11:51:18;;;;;;;31.53;20.93;;;7.60;99.90;;;;;;5067834;28;20522;-66
2023/01/17 11:53:48;;;;;;;39.73;22.90;;;7.60;99.90;;;;;;5065738;28;20201;-66
2023/01/17 11:56:18;;;;;;;43.33;25.10;;;7.60;99.90;;;;;;5064732;28;20225;-65
2023/01/17 11:58:46;;;;;;;39.03;23.17;;;7.60;99.90;;;;;;5062466;28;20902;-66
2023/01/17 12:01:31;;;;;;;38.30;23.80;;;7.60;99.90;;;;;;5060977;28;20238;-64
2023/01/17 12:04:16;;;;;;;38.43;23.93;;;7.60;99.90;;;;;;5064289;28;20241;-66
2023/01/17 12:07:04;;;;;;;40.37;22.80;;;7.60;99.90;;;;;;5066173;28;20215;-65
2023/01/17 12:09:34;;;;;;;36.13;24.07;;;7.50;99.90;;;;;;5062717;28;20203;-66
2023/01/17 12:15:01;;;;;;;34.70;21.70;;;7.50;99.90;;;;;;5071877;28;20770;-64
2023/01/17 12:17:33;;;;;;;36.60;22.10;;;7.50;99.90;;;;;;5066776;28;20202;-66
2023/01/17 12:20:09;;;;;;;32.70;21.67;;;7.50;99.90;;;;;;5067489;28;20198;-68
2023/01/17 12:22:59;;;;;;;36.17;22.43;;;7.50;99.90;;;;;;5071740;28;20194;-68
2023/01/17 12:25:48;;;;;;;37.00;22.30;;;7.40;99.90;;;;;;5064752;28;20256;-65
2023/01/17 12:28:21;;;;;;;37.97;20.97;;;7.40;99.90;;;;;;5066463;28;20512;-68
2023/01/17 12:31:09;;;;;;;30.97;19.73;;;7.40;99.90;;;;;;5071584;28;20189;-68
2023/01/17 12:34:02;;;;;;;36.10;21.93;;;7.40;99.90;;;;;;5063794;28;20272;-68
2023/01/17 12:36:39;;;;;;;29.17;19.23;;;7.40;99.90;;;;;;5064653;28;20264;-68
2023/01/17 12:39:10;;;;;;;30.77;20.63;;;7.40;99.90;;;;;;5090536;28;20210;-69
2023/01/17 12:41:51;;;;;;;31.07;21.07;;;7.40;99.90;;;;;;5071617;28;20222;-70
2023/01/17 12:44:28;;;;;;;30.70;20.23;;;7.40;99.90;;;;;;5067109;28;20578;-69
2023/01/17 12:47:01;;;;;;;27.60;18.30;;;7.40;99.90;;;;;;5065302;28;20206;-70
2023/01/17 12:49:59;;;;;;;31.37;19.20;;;7.40;99.90;;;;;;5065594;28;20228;-70
2023/01/17 12:52:44;;;;;;;32.20;19.77;;;7.40;99.90;;;;;;5067905;28;20214;-70
2023/01/17 12:55:32;;;;;;;25.00;17.63;;;7.40;99.90;;;;;;5045716;28;20649;-71
2023/01/17 12:58:01;;;;;;;25.30;17.03;;;7.30;99.90;;;;;;5065840;28;20646;-71
2023/01/17 13:00:30;;;;;;;29.37;18.10;;;7.30;99.90;;;;;;5065307;28;20644;-71
2023/01/17 13:03:14;;;;;;;26.07;17.97;;;7.30;99.90;;;;;;5068082;28;20198;-70
2023/01/17 13:05:45;;;;;;;24.70;17.30;;;7.30;99.90;;;;;;5069652;28;20193;-71
2023/01/17 13:08:33;;;;;;;24.90;16.30;;;7.30;99.90;;;;;;5070237;28;20241;-71
2023/01/17 13:11:22;;;;;;;24.27;15.03;;;7.30;99.90;;;;;;5065860;28;20267;-71
2023/01/17 13:13:51;;;;;;;19.90;14.10;;;7.30;99.90;;;;;;5070375;28;20248;-71
2023/01/17 13:16:37;;;;;;;21.43;13.93;;;7.30;99.90;;;;;;5068382;28;20655;-72
2023/01/17 13:19:22;;;;;;;23.00;16.33;;;7.30;99.90;;;;;;5065565;28;20542;-72
2023/01/17 13:21:49;;;;;;;19.83;13.97;;;7.30;99.90;;;;;;5074079;28;20190;-72
2023/01/17 13:24:34;;;;;;;17.80;13.57;;;7.20;99.90;;;;;;5071971;28;20201;-72
2023/01/17 13:27:27;;;;;;;21.67;12.43;;;7.20;99.90;;;;;;5063561;28;20210;-73
2023/01/17 13:30:22;;;;;;;16.73;12.47;;;7.20;99.90;;;;;;5071196;28;20221;-72
2023/01/17 13:33:22;;;;;;;16.30;11.57;;;7.20;99.90;;;;;;5068217;28;20202;-72
2023/01/17 13:35:56;;;;;;;18.10;12.10;;;7.20;99.90;;;;;;5068737;28;20205;-72
2023/01/17 13:38:55;;;;;;;18.13;11.73;;;7.20;99.90;;;;;;5065599;28;21017;-69
2023/01/17 13:41:49;;;;;;;24.30;17.13;;;7.20;99.90;;;;;;5068012;28;20785;-69
2023/01/17 13:44:23;;;;;;;16.73;12.27;;;7.30;99.90;;;;;;5067586;28;20202;-71
2023/01/17 13:46:59;;;;;;;15.10;11.63;;;7.30;99.90;;;;;;5067899;28;20241;-72
2023/01/17 13:49:33;;;;;;;19.70;11.60;;;7.30;99.90;;;;;;5065036;28;20217;-73
2023/01/17 13:52:02;;;;;;;18.23;11.43;;;7.40;99.90;;;;;;5069093;28;20203;-70
2023/01/17 13:54:32;;;;;;;14.77;11.20;;;7.40;99.90;;;;;;5066553;28;20198;-71
2023/01/17 13:57:24;;;;;;;18.53;12.23;;;7.40;99.90;;;;;;5069431;28;20233;-70
2023/01/17 13:59:56;;;;;;;15.10;10.70;;;7.50;99.90;;;;;;5065108;28;20640;-71
2023/01/17 14:02:32;;;;;;;15.53;12.47;;;7.40;99.90;;;;;;5066168;28;20226;-71
2023/01/17 14:05:22;;;;;;;17.10;11.67;;;7.50;99.90;;;;;;5064802;28;20200;-70
2023/01/17 14:08:05;;;;;;;16.17;12.27;;;7.50;99.90;;;;;;5066955;28;20213;-69
2023/01/17 14:10:41;;;;;;;17.63;12.40;;;7.50;99.90;;;;;;5064561;28;20190;-72
2023/01/17 14:13:34;;;;;;;16.27;11.37;;;7.50;99.90;;;;;;5067081;28;20203;-69
2023/01/17 14:16:06;;;;;;;14.80;10.97;;;7.50;99.90;;;;;;5067597;28;20656;-71
2023/01/17 14:18:42;;;;;;;12.73;10.80;;;7.50;99.90;;;;;;5074745;28;20198;-71
2023/01/17 14:21:22;;;;;;;14.87;11.17;;;7.40;99.90;;;;;;5066528;28;20664;-70
2023/01/17 14:24:17;;;;;;;14.60;11.83;;;7.50;99.90;;;;;;5067740;28;20199;-68
2023/01/17 14:27:14;;;;;;;17.50;12.20;;;7.50;99.90;;;;;;5068383;28;20221;-68
2023/01/17 14:29:49;;;;;;;17.53;11.97;;;7.50;99.90;;;;;;5067899;28;20199;-63